sensor_id;sensor_type;location;lat;lon;timestamp;pressure;altitude;pressure_sealevel;temperature;humidity
25350;BME280;13302;48.796;11.978;2023-02-18T00:02:28;97552.84;;;11.12;44.19
25350;BME280;13302;48.796;11.978;2023-02-18T00:05:15;97554.47;;;11.13;44.32
25350;BME280;13302;48.796;11.978;2023-02-18T00:08:02;97557.25;;;11.13;44.32
25350;BME280;13302;48.796;11.978;2023-02-18T00:10:50;97556.44;;;11.13;44.33
25350;BME280;13302;48.796;11.978;2023-02-18T00:13:37;97554.47;;;11.13;44.09
25350;BME280;13302;48.796;11.978;2023-02-18T00:16:25;97542.59;;;11.13;44.25
25350;BME280;13302;48.796;11.978;2023-02-18T00:19:15;97555.16;;;11.10;44.33
25350;BME280;13302;48.796;11.978;2023-02-18T00:22:02;97537.41;;;11.11;44.06
25350;BME280;13302;48.796;11.978;2023-02-18T00:24:50;97552.06;;;11.12;44.23
25350;BME280;13302;48.796;11.978;2023-02-18T00:27:37;97548.50;;;11.11;44.12
25350;BME280;13302;48.796;11.978;2023-02-18T00:30:24;97546.03;;;11.10;44.21
25350;BME280;13302;48.796;11.978;2023-02-18T00:33:12;97547.31;;;11.12;43.85
25350;BME280;13302;48.796;11.978;2023-02-18T00:36:08;97547.69;;;11.11;43.98
25350;BME280;13302;48.796;11.978;2023-02-18T00:38:58;97544.09;;;11.10;44.04
25350;BME280;13302;48.796;11.978;2023-02-18T00:41:45;97544.09;;;11.10;44.17
25350;BME280;13302;48.796;11.978;2023-02-18T00:44:34;97536.25;;;11.12;43.71
25350;BME280;13302;48.796;11.978;2023-02-18T00:47:21;97539.38;;;11.11;44.26
25350;BME280;13302;48.796;11.978;2023-02-18T00:50:09;97537.41;;;11.11;43.88
25350;BME280;13302;48.796;11.978;2023-02-18T00:52:56;97540.19;;;11.11;44.04
25350;BME280;13302;48.796;11.978;2023-02-18T00:55:44;97540.31;;;11.15;43.94
25350;BME280;13302;48.796;11.978;2023-02-18T00:58:34;97541.13;;;11.15;44.09
25350;BME280;13302;48.796;11.978;2023-02-18T01:01:23;97539.97;;;11.16;43.98
25350;BME280;13302;48.796;11.978;2023-02-18T01:04:10;97543.22;;;11.18;43.76
25350;BME280;13302;48.796;11.978;2023-02-18T01:06:57;97540.44;;;11.18;44.03
25350;BME280;13302;48.796;11.978;2023-02-18T01:09:44;97549.56;;;11.19;44.03
25350;BME280;13302;48.796;11.978;2023-02-18T01:12:32;97545.97;;;11.18;44.00
25350;BME280;13302;48.796;11.978;2023-02-18T01:15:20;97536.88;;;11.18;43.74
25350;BME280;13302;48.796;11.978;2023-02-18T01:18:08;97529.38;;;11.18;43.97
25350;BME280;13302;48.796;11.978;2023-02-18T01:20:55;97542.41;;;11.18;43.77
25350;BME280;13302;48.796;11.978;2023-02-18T01:23:43;97538.50;;;11.19;43.80
25350;BME280;13302;48.796;11.978;2023-02-18T01:26:30;97541.72;;;11.21;43.67
25350;BME280;13302;48.796;11.978;2023-02-18T01:29:17;97537.34;;;11.20;44.00
25350;BME280;13302;48.796;11.978;2023-02-18T01:32:04;97529.03;;;11.20;43.60
25350;BME280;13302;48.796;11.978;2023-02-18T01:34:51;97531.34;;;11.18;43.94
25350;BME280;13302;48.796;11.978;2023-02-18T01:37:39;97532.97;;;11.19;43.87
25350;BME280;13302;48.796;11.978;2023-02-18T01:40:28;97539.31;;;11.19;43.59
25350;BME280;13302;48.796;11.978;2023-02-18T01:43:15;97527.41;;;11.19;43.94
25350;BME280;13302;48.796;11.978;2023-02-18T01:49:00;97522.22;;;11.17;43.73
25350;BME280;13302;48.796;11.978;2023-02-18T01:51:57;97521.75;;;11.15;44.00
25350;BME280;13302;48.796;11.978;2023-02-18T01:54:48;97524.97;;;11.17;43.61
25350;BME280;13302;48.796;11.978;2023-02-18T01:57:36;97516.34;;;11.19;43.87
25350;BME280;13302;48.796;11.978;2023-02-18T02:00:24;97519.94;;;11.19;43.83
25350;BME280;13302;48.796;11.978;2023-02-18T02:03:12;97516.81;;;11.21;43.81
25350;BME280;13302;48.796;11.978;2023-02-18T02:06:08;97507.38;;;11.22;43.86
25350;BME280;13302;48.796;11.978;2023-02-18T02:09:02;97511.75;;;11.23;43.71
25350;BME280;13302;48.796;11.978;2023-02-18T02:24:50;97497.72;;;11.28;43.35
25350;BME280;13302;48.796;11.978;2023-02-18T02:37:26;97479.47;;;11.27;43.45
25350;BME280;13302;48.796;11.978;2023-02-18T02:40:37;97475.91;;;11.26;43.40
25350;BME280;13302;48.796;11.978;2023-02-18T02:44:06;97486.97;;;11.26;43.36
25350;BME280;13302;48.796;11.978;2023-02-18T02:47:01;97490.88;;;11.25;43.11
25350;BME280;13302;48.796;11.978;2023-02-18T02:50:02;97487.31;;;11.25;43.14
25350;BME280;13302;48.796;11.978;2023-02-18T02:52:54;97473.13;;;11.26;43.01
25350;BME280;13302;48.796;11.978;2023-02-18T02:55:43;97463.69;;;11.27;43.03
25350;BME280;13302;48.796;11.978;2023-02-18T02:58:31;97460.91;;;11.27;43.13
25350;BME280;13302;48.796;11.978;2023-02-18T03:01:19;97450.66;;;11.28;43.06
25350;BME280;13302;48.796;11.978;2023-02-18T03:07:19;97441.53;;;11.27;43.22
25350;BME280;13302;48.796;11.978;2023-02-18T03:10:26;97439.91;;;11.26;42.96
25350;BME280;13302;48.796;11.978;2023-02-18T03:16:49;97453.75;;;11.26;42.55
25350;BME280;13302;48.796;11.978;2023-02-18T03:19:41;97449.03;;;11.27;42.52
25350;BME280;13302;48.796;11.978;2023-02-18T03:22:36;97445.91;;;11.28;42.47
25350;BME280;13302;48.796;11.978;2023-02-18T03:25:25;97453.56;;;11.31;42.42
25350;BME280;13302;48.796;11.978;2023-02-18T03:28:20;97448.81;;;11.32;42.55
25350;BME280;13302;48.796;11.978;2023-02-18T03:31:11;97442.81;;;11.30;42.58
25350;BME280;13302;48.796;11.978;2023-02-18T03:34:08;97442.00;;;11.29;42.58
25350;BME280;13302;48.796;11.978;2023-02-18T03:36:58;97451.13;;;11.30;42.56
25350;BME280;13302;48.796;11.978;2023-02-18T03:39:48;97454.69;;;11.30;42.63
25350;BME280;13302;48.796;11.978;2023-02-18T03:42:38;97444.06;;;11.32;42.32
25350;BME280;13302;48.796;11.978;2023-02-18T03:45:26;97442.47;;;11.31;42.46
25350;BME280;13302;48.796;11.978;2023-02-18T03:48:13;97448.00;;;11.31;42.17
25350;BME280;13302;48.796;11.978;2023-02-18T03:51:00;97438.91;;;11.31;42.17
25350;BME280;13302;48.796;11.978;2023-02-18T03:53:47;97447.53;;;11.29;42.18
25350;BME280;13302;48.796;11.978;2023-02-18T03:56:35;97453.56;;;11.31;42.11
25350;BME280;13302;48.796;11.978;2023-02-18T03:59:23;97444.44;;;11.31;42.14
25350;BME280;13302;48.796;11.978;2023-02-18T04:02:10;97435.00;;;11.32;42.25
25350;BME280;13302;48.796;11.978;2023-02-18T04:04:57;97447.31;;;11.34;42.31
25350;BME280;13302;48.796;11.978;2023-02-18T04:07:44;97447.31;;;11.34;42.27
25350;BME280;13302;48.796;11.978;2023-02-18T04:10:31;97442.59;;;11.35;42.44
25350;BME280;13302;48.796;11.978;2023-02-18T04:13:18;97446.19;;;11.35;42.29
25350;BME280;13302;48.796;11.978;2023-02-18T04:16:05;97454.50;;;11.35;42.18
25350;BME280;13302;48.796;11.978;2023-02-18T04:18:53;97456.91;;;11.37;42.32
25350;BME280;13302;48.796;11.978;2023-02-18T04:21:40;97464.38;;;11.36;42.41
25350;BME280;13302;48.796;11.978;2023-02-18T04:24:27;97460.03;;;11.35;42.30
25350;BME280;13302;48.796;11.978;2023-02-18T04:27:14;97477.44;;;11.36;42.05
25350;BME280;13302;48.796;11.978;2023-02-18T04:30:02;97469.91;;;11.36;42.26
25350;BME280;13302;48.796;11.978;2023-02-18T04:32:50;97463.59;;;11.36;42.13
25350;BME280;13302;48.796;11.978;2023-02-18T04:35:37;97469.59;;;11.38;42.16
25350;BME280;13302;48.796;11.978;2023-02-18T04:38:28;97466.81;;;11.38;42.09
25350;BME280;13302;48.796;11.978;2023-02-18T04:41:15;97461.28;;;11.38;42.38
25350;BME280;13302;48.796;11.978;2023-02-18T04:44:02;97462.44;;;11.37;42.10
25350;BME280;13302;48.796;11.978;2023-02-18T04:46:49;97466.81;;;11.38;42.21
25350;BME280;13302;48.796;11.978;2023-02-18T04:49:36;97475.59;;;11.40;42.20
25350;BME280;13302;48.796;11.978;2023-02-18T04:52:23;97465.31;;;11.40;42.09
25350;BME280;13302;48.796;11.978;2023-02-18T04:55:10;97462.09;;;11.38;42.13
25350;BME280;13302;48.796;11.978;2023-02-18T04:57:57;97462.91;;;11.39;42.27
25350;BME280;13302;48.796;11.978;2023-02-18T05:00:45;97471.22;;;11.39;42.24
25350;BME280;13302;48.796;11.978;2023-02-18T05:03:32;97482.75;;;11.41;41.94
25350;BME280;13302;48.796;11.978;2023-02-18T05:06:19;97469.72;;;11.41;42.16
25350;BME280;13302;48.796;11.978;2023-02-18T05:09:06;97462.91;;;11.39;42.15
25350;BME280;13302;48.796;11.978;2023-02-18T05:11:53;97465.19;;;11.37;42.10
25350;BME280;13302;48.796;11.978;2023-02-18T05:14:40;97456.06;;;11.36;42.07
25350;BME280;13302;48.796;11.978;2023-02-18T05:17:27;97447.78;;;11.36;42.17
25350;BME280;13302;48.796;11.978;2023-02-18T05:20:14;97439.13;;;11.38;42.00
25350;BME280;13302;48.796;11.978;2023-02-18T05:23:01;97449.41;;;11.37;41.90
25350;BME280;13302;48.796;11.978;2023-02-18T05:25:48;97451.34;;;11.37;41.97
25350;BME280;13302;48.796;11.978;2023-02-18T05:28:35;97451.34;;;11.37;42.03
25350;BME280;13302;48.796;11.978;2023-02-18T05:31:22;97443.06;;;11.37;42.27
25350;BME280;13302;48.796;11.978;2023-02-18T05:34:09;97445.50;;;11.38;42.13
25350;BME280;13302;48.796;11.978;2023-02-18T05:36:56;97445.94;;;11.40;42.28
25350;BME280;13302;48.796;11.978;2023-02-18T05:39:44;97452.28;;;11.41;41.86
25350;BME280;13302;48.796;11.978;2023-02-18T05:42:31;97439.25;;;11.41;41.67
25350;BME280;13302;48.796;11.978;2023-02-18T05:45:18;97451.16;;;11.42;41.79
25350;BME280;13302;48.796;11.978;2023-02-18T05:48:05;97449.53;;;11.41;41.63
25350;BME280;13302;48.796;11.978;2023-02-18T05:50:53;97450.69;;;11.40;41.80
25350;BME280;13302;48.796;11.978;2023-02-18T05:53:40;97455.06;;;11.41;41.75
25350;BME280;13302;48.796;11.978;2023-02-18T05:56:27;97458.63;;;11.41;41.68
25350;BME280;13302;48.796;11.978;2023-02-18T05:59:14;97463.38;;;11.41;41.58
25350;BME280;13302;48.796;11.978;2023-02-18T06:02:01;97469.72;;;11.41;41.85
25350;BME280;13302;48.796;11.978;2023-02-18T06:04:48;97459.44;;;11.42;41.92
25350;BME280;13302;48.796;11.978;2023-02-18T06:07:35;97466.63;;;11.43;41.63
25350;BME280;13302;48.796;11.978;2023-02-18T06:10:22;97462.22;;;11.42;41.65
25350;BME280;13302;48.796;11.978;2023-02-18T06:13:09;97455.06;;;11.41;41.72
25350;BME280;13302;48.796;11.978;2023-02-18T06:15:56;97477.22;;;11.41;41.55
25350;BME280;13302;48.796;11.978;2023-02-18T06:18:43;97473.63;;;11.40;41.70
25350;BME280;13302;48.796;11.978;2023-02-18T06:21:31;97468.91;;;11.41;41.45
25350;BME280;13302;48.796;11.978;2023-02-18T06:24:18;97468.56;;;11.42;41.65
25350;BME280;13302;48.796;11.978;2023-02-18T06:27:05;97470.53;;;11.42;41.71
25350;BME280;13302;48.796;11.978;2023-02-18T06:29:52;97477.22;;;11.41;41.52
25350;BME280;13302;48.796;11.978;2023-02-18T06:32:39;97463.03;;;11.42;41.71
25350;BME280;13302;48.796;11.978;2023-02-18T06:35:26;97462.69;;;11.44;41.39
25350;BME280;13302;48.796;11.978;2023-02-18T06:38:13;97457.97;;;11.44;41.78
25350;BME280;13302;48.796;11.978;2023-02-18T06:41:00;97467.06;;;11.45;41.34
25350;BME280;13302;48.796;11.978;2023-02-18T06:43:47;97459.56;;;11.45;41.44
25350;BME280;13302;48.796;11.978;2023-02-18T06:46:34;97457.97;;;11.44;41.37
25350;BME280;13302;48.796;11.978;2023-02-18T06:49:21;97457.63;;;11.46;41.54
25350;BME280;13302;48.796;11.978;2023-02-18T06:52:08;97450.13;;;11.46;41.50
25350;BME280;13302;48.796;11.978;2023-02-18T06:54:56;97455.66;;;11.46;41.49
25350;BME280;13302;48.796;11.978;2023-02-18T06:57:43;97460.38;;;11.46;41.57
25350;BME280;13302;48.796;11.978;2023-02-18T07:00:30;97460.38;;;11.46;41.34
25350;BME280;13302;48.796;11.978;2023-02-18T07:03:17;97456.81;;;11.45;41.52
25350;BME280;13302;48.796;11.978;2023-02-18T07:06:04;97463.97;;;11.46;41.54
25350;BME280;13302;48.796;11.978;2023-02-18T07:08:51;97463.97;;;11.46;41.07
25350;BME280;13302;48.796;11.978;2023-02-18T07:11:38;97467.88;;;11.45;41.41
25350;BME280;13302;48.796;11.978;2023-02-18T07:14:25;97463.16;;;11.46;41.36
25350;BME280;13302;48.796;11.978;2023-02-18T07:17:13;97442.16;;;11.45;41.00
25350;BME280;13302;48.796;11.978;2023-02-18T07:20:01;97446.91;;;11.44;41.14
25350;BME280;13302;48.796;11.978;2023-02-18T07:22:48;97447.69;;;11.45;41.07
25350;BME280;13302;48.796;11.978;2023-02-18T07:25:36;97442.16;;;11.45;41.33
25350;BME280;13302;48.796;11.978;2023-02-18T07:28:23;97441.38;;;11.44;41.13
25350;BME280;13302;48.796;11.978;2023-02-18T07:31:10;97443.31;;;11.44;41.12
25350;BME280;13302;48.796;11.978;2023-02-18T07:33:57;97435.81;;;11.44;40.90
25350;BME280;13302;48.796;11.978;2023-02-18T07:36:44;97433.06;;;11.44;41.25
25350;BME280;13302;48.796;11.978;2023-02-18T07:39:31;97438.59;;;11.44;40.92
25350;BME280;13302;48.796;11.978;2023-02-18T07:42:18;97426.72;;;11.44;41.19
25350;BME280;13302;48.796;11.978;2023-02-18T07:45:05;97427.16;;;11.46;40.96
25350;BME280;13302;48.796;11.978;2023-02-18T07:47:52;97415.28;;;11.45;41.02
25350;BME280;13302;48.796;11.978;2023-02-18T07:50:40;97411.69;;;11.45;40.99
25350;BME280;13302;48.796;11.978;2023-02-18T07:53:28;97414.47;;;11.45;40.69
25350;BME280;13302;48.796;11.978;2023-02-18T07:56:15;97408.94;;;11.45;40.76
25350;BME280;13302;48.796;11.978;2023-02-18T07:59:02;97410.56;;;11.46;40.55
25350;BME280;13302;48.796;11.978;2023-02-18T08:01:49;97393.94;;;11.46;40.55
25350;BME280;13302;48.796;11.978;2023-02-18T08:04:36;97398.34;;;11.47;40.82
25350;BME280;13302;48.796;11.978;2023-02-18T08:07:23;97400.41;;;11.50;40.86
25350;BME280;13302;48.796;11.978;2023-02-18T08:10:10;97405.75;;;11.55;40.50
25350;BME280;13302;48.796;11.978;2023-02-18T08:12:57;97416.50;;;11.57;40.62
25350;BME280;13302;48.796;11.978;2023-02-18T08:15:44;97413.84;;;11.60;40.23
25350;BME280;13302;48.796;11.978;2023-02-18T08:18:31;97399.63;;;11.62;40.21
25350;BME280;13302;48.796;11.978;2023-02-18T08:21:20;97400.81;;;11.61;40.46
25350;BME280;13302;48.796;11.978;2023-02-18T08:24:07;97404.84;;;11.63;40.35
25350;BME280;13302;48.796;11.978;2023-02-18T08:26:54;97411.19;;;11.64;40.44
25350;BME280;13302;48.796;11.978;2023-02-18T08:29:47;97400.13;;;11.64;40.08
25350;BME280;13302;48.796;11.978;2023-02-18T08:32:34;97410.50;;;11.67;40.49
25350;BME280;13302;48.796;11.978;2023-02-18T08:35:21;97395.94;;;11.70;40.49
25350;BME280;13302;48.796;11.978;2023-02-18T08:38:08;97406.69;;;11.71;40.15
25350;BME280;13302;48.796;11.978;2023-02-18T08:41:03;97407.13;;;11.73;40.10
25350;BME280;13302;48.796;11.978;2023-02-18T08:43:50;97406.09;;;11.78;40.31
25350;BME280;13302;48.796;11.978;2023-02-18T08:46:37;97401.84;;;11.80;40.19
25350;BME280;13302;48.796;11.978;2023-02-18T08:49:24;97388.00;;;11.80;40.22
25350;BME280;13302;48.796;11.978;2023-02-18T08:52:12;97404.25;;;11.82;40.21
25350;BME280;13302;48.796;11.978;2023-02-18T08:54:59;97389.75;;;11.85;40.20
25350;BME280;13302;48.796;11.978;2023-02-18T08:57:47;97392.63;;;11.88;40.10
25350;BME280;13302;48.796;11.978;2023-02-18T09:00:35;97392.25;;;11.90;40.30
25350;BME280;13302;48.796;11.978;2023-02-18T09:03:22;97394.81;;;11.95;39.83
25350;BME280;13302;48.796;11.978;2023-02-18T09:06:10;97381.41;;;11.97;40.09
25350;BME280;13302;48.796;11.978;2023-02-18T09:08:57;97395.38;;;12.01;39.78
25350;BME280;13302;48.796;11.978;2023-02-18T09:11:44;97379.56;;;12.01;39.86
25350;BME280;13302;48.796;11.978;2023-02-18T09:14:31;97379.19;;;12.03;39.93
25350;BME280;13302;48.796;11.978;2023-02-18T09:17:18;97383.59;;;12.04;39.68
25350;BME280;13302;48.796;11.978;2023-02-18T09:20:06;97378.38;;;12.02;39.99
25350;BME280;13302;48.796;11.978;2023-02-18T09:22:53;97371.69;;;12.03;39.69
25350;BME280;13302;48.796;11.978;2023-02-18T09:25:40;97369.31;;;12.02;39.88
25350;BME280;13302;48.796;11.978;2023-02-18T09:28:27;97353.81;;;12.01;39.91
25350;BME280;13302;48.796;11.978;2023-02-18T09:31:17;97358.22;;;12.02;39.82
25350;BME280;13302;48.796;11.978;2023-02-18T09:34:05;97359.91;;;12.06;39.99
25350;BME280;13302;48.796;11.978;2023-02-18T09:36:52;97364.31;;;12.07;39.98
25350;BME280;13302;48.796;11.978;2023-02-18T09:39:39;97370.66;;;12.08;39.88
25350;BME280;13302;48.796;11.978;2023-02-18T09:42:31;97361.53;;;12.07;39.99
25350;BME280;13302;48.796;11.978;2023-02-18T09:45:19;97336.59;;;12.07;39.77
25350;BME280;13302;48.796;11.978;2023-02-18T09:48:08;97335.91;;;12.10;39.88
25350;BME280;13302;48.796;11.978;2023-02-18T09:50:56;97341.09;;;12.12;39.76
25350;BME280;13302;48.796;11.978;2023-02-18T09:53:44;97346.75;;;12.15;39.52
25350;BME280;13302;48.796;11.978;2023-02-18T09:56:32;97342.81;;;12.16;39.70
25350;BME280;13302;48.796;11.978;2023-02-18T09:59:25;97318.69;;;12.17;39.38
25350;BME280;13302;48.796;11.978;2023-02-18T10:02:13;97332.19;;;12.18;39.18
25350;BME280;13302;48.796;11.978;2023-02-18T10:05:03;97315.19;;;12.20;39.27
25350;BME280;13302;48.796;11.978;2023-02-18T10:07:54;97320.31;;;12.18;39.08
25350;BME280;13302;48.796;11.978;2023-02-18T10:10:44;97312.00;;;12.18;39.04
25350;BME280;13302;48.796;11.978;2023-02-18T10:13:33;97310.72;;;12.15;39.38
25350;BME280;13302;48.796;11.978;2023-02-18T10:16:21;97304.34;;;12.15;39.03
25350;BME280;13302;48.796;11.978;2023-02-18T10:19:32;97296.41;;;12.13;39.21
25350;BME280;13302;48.796;11.978;2023-02-18T10:22:21;97294.88;;;12.16;39.22
25350;BME280;13302;48.796;11.978;2023-02-18T10:25:17;97294.88;;;12.16;39.04
25350;BME280;13302;48.796;11.978;2023-02-18T10:28:05;97312.00;;;12.18;39.17
25350;BME280;13302;48.796;11.978;2023-02-18T10:30:59;97297.66;;;12.16;39.32
25350;BME280;13302;48.796;11.978;2023-02-18T10:36:54;97305.75;;;12.21;39.14
25350;BME280;13302;48.796;11.978;2023-02-18T10:39:50;97289.91;;;12.21;39.20
25350;BME280;13302;48.796;11.978;2023-02-18T10:48:56;97305.84;;;12.24;38.94
25350;BME280;13302;48.796;11.978;2023-02-18T10:51:51;97304.22;;;12.23;39.07
25350;BME280;13302;48.796;11.978;2023-02-18T10:55:32;97297.88;;;12.23;39.16
25350;BME280;13302;48.796;11.978;2023-02-18T10:57:59;97297.09;;;12.22;39.00
25350;BME280;13302;48.796;11.978;2023-02-18T11:00:46;97299.03;;;12.22;38.91
25350;BME280;13302;48.796;11.978;2023-02-18T11:03:48;97297.88;;;12.23;39.15
25350;BME280;13302;48.796;11.978;2023-02-18T11:06:41;97291.97;;;12.24;38.95
25350;BME280;13302;48.796;11.978;2023-02-18T11:12:44;97280.09;;;12.24;39.05
25350;BME280;13302;48.796;11.978;2023-02-18T11:15:32;97268.66;;;12.25;39.09
25350;BME280;13302;48.796;11.978;2023-02-18T11:18:41;97274.63;;;12.27;38.82
25350;BME280;13302;48.796;11.978;2023-02-18T11:21:34;97253.75;;;12.30;38.84
25350;BME280;13302;48.796;11.978;2023-02-18T11:24:23;97244.72;;;12.33;38.94
25350;BME280;13302;48.796;11.978;2023-02-18T11:27:22;97237.28;;;12.37;38.69
25350;BME280;13302;48.796;11.978;2023-02-18T11:30:22;97236.16;;;12.38;38.84
25350;BME280;13302;48.796;11.978;2023-02-18T11:36:15;97226.22;;;12.37;38.80
25350;BME280;13302;48.796;11.978;2023-02-18T11:39:24;97207.22;;;12.39;38.70
25350;BME280;13302;48.796;11.978;2023-02-18T11:42:14;97212.44;;;12.40;38.73
25350;BME280;13302;48.796;11.978;2023-02-18T11:45:02;97210.97;;;12.43;38.58
25350;BME280;13302;48.796;11.978;2023-02-18T11:48:01;97222.84;;;12.43;38.15
25350;BME280;13302;48.796;11.978;2023-02-18T11:50:52;97213.38;;;12.45;38.44
25350;BME280;13302;48.796;11.978;2023-02-18T11:53:59;97200.19;;;12.41;38.45
25350;BME280;13302;48.796;11.978;2023-02-18T11:57:12;97197.41;;;12.41;38.09
25350;BME280;13302;48.796;11.978;2023-02-18T12:00:00;97188.28;;;12.41;38.48
25350;BME280;13302;48.796;11.978;2023-02-18T12:02:55;97184.72;;;12.40;38.28
25350;BME280;13302;48.796;11.978;2023-02-18T12:05:45;97186.34;;;12.41;38.59
25350;BME280;13302;48.796;11.978;2023-02-18T12:08:41;97197.41;;;12.41;38.46
25350;BME280;13302;48.796;11.978;2023-02-18T12:11:39;97192.22;;;12.40;38.37
25350;BME280;13302;48.796;11.978;2023-02-18T12:14:28;97178.81;;;12.42;38.43
25350;BME280;13302;48.796;11.978;2023-02-18T12:27:40;97192.59;;;12.38;38.37
25350;BME280;13302;48.796;11.978;2023-02-18T12:30:46;97172.81;;;12.40;38.35
25350;BME280;13302;48.796;11.978;2023-02-18T12:43:21;97163.69;;;12.39;38.65
25350;BME280;13302;48.796;11.978;2023-02-18T12:50:02;97156.19;;;12.40;38.78
25350;BME280;13302;48.796;11.978;2023-02-18T13:05:29;97142.63;;;12.51;38.33
25350;BME280;13302;48.796;11.978;2023-02-18T13:11:46;97127.97;;;12.50;38.32
25350;BME280;13302;48.796;11.978;2023-02-18T13:14:50;97134.41;;;12.54;38.04
25350;BME280;13302;48.796;11.978;2023-02-18T13:17:43;97128.06;;;12.54;37.96
25350;BME280;13302;48.796;11.978;2023-02-18T13:20:40;97110.25;;;12.55;37.90
25350;BME280;13302;48.796;11.978;2023-02-18T13:23:32;97117.38;;;12.56;37.70
25350;BME280;13302;48.796;11.978;2023-02-18T13:26:20;97134.16;;;12.59;37.16
25350;BME280;13302;48.796;11.978;2023-02-18T13:32:19;97107.91;;;12.57;37.04
25350;BME280;13302;48.796;11.978;2023-02-18T13:41:12;97108.72;;;12.57;36.79
25350;BME280;13302;48.796;11.978;2023-02-18T13:43:59;97113.53;;;12.60;36.61
25350;BME280;13302;48.796;11.978;2023-02-18T13:46:52;97099.34;;;12.62;37.02
25350;BME280;13302;48.796;11.978;2023-02-18T13:49:39;97103.81;;;12.66;36.89
25350;BME280;13302;48.796;11.978;2023-02-18T13:52:27;97105.03;;;12.69;36.93
25350;BME280;13302;48.796;11.978;2023-02-18T13:55:30;97102.66;;;12.67;36.85
25350;BME280;13302;48.796;11.978;2023-02-18T13:58:22;97114.53;;;12.68;37.02
25350;BME280;13302;48.796;11.978;2023-02-18T14:03:58;97099.59;;;12.72;37.04
25350;BME280;13302;48.796;11.978;2023-02-18T14:16:09;97109.59;;;12.77;36.04
25350;BME280;13302;48.796;11.978;2023-02-18T14:18:58;97077.94;;;12.78;35.88
25350;BME280;13302;48.796;11.978;2023-02-18T14:21:46;97091.81;;;12.78;35.84
25350;BME280;13302;48.796;11.978;2023-02-18T14:24:47;97090.66;;;12.79;35.99
25350;BME280;13302;48.796;11.978;2023-02-18T14:27:35;97094.66;;;12.81;35.88
25350;BME280;13302;48.796;11.978;2023-02-18T14:30:38;97070.50;;;12.82;36.05
25350;BME280;13302;48.796;11.978;2023-02-18T14:33:29;97064.94;;;12.82;35.96
25350;BME280;13302;48.796;11.978;2023-02-18T14:36:39;97072.91;;;12.83;35.80
25350;BME280;13302;48.796;11.978;2023-02-18T14:49:19;97071.66;;;12.81;35.72
25350;BME280;13302;48.796;11.978;2023-02-18T14:52:21;97077.19;;;12.81;35.77
25350;BME280;13302;48.796;11.978;2023-02-18T14:55:21;97080.44;;;12.83;35.61
25350;BME280;13302;48.796;11.978;2023-02-18T14:58:37;97087.59;;;12.84;35.80
25350;BME280;13302;48.796;11.978;2023-02-18T15:01:31;97061.91;;;12.87;35.49
25350;BME280;13302;48.796;11.978;2023-02-18T15:04:18;97080.16;;;12.88;35.29
25350;BME280;13302;48.796;11.978;2023-02-18T15:07:08;97080.16;;;12.88;35.48
25350;BME280;13302;48.796;11.978;2023-02-18T15:09:55;97077.00;;;12.89;35.57
25350;BME280;13302;48.796;11.978;2023-02-18T15:12:43;97080.94;;;12.88;35.39
25350;BME280;13302;48.796;11.978;2023-02-18T15:15:32;97086.50;;;12.88;35.35
25350;BME280;13302;48.796;11.978;2023-02-18T15:21:20;97088.50;;;12.88;35.71
25350;BME280;13302;48.796;11.978;2023-02-18T15:24:30;97089.66;;;12.87;35.71
25350;BME280;13302;48.796;11.978;2023-02-18T15:27:25;97078.97;;;12.89;35.43
25350;BME280;13302;48.796;11.978;2023-02-18T15:30:23;97089.25;;;12.88;35.52
25350;BME280;13302;48.796;11.978;2023-02-18T15:33:10;97090.44;;;12.87;35.29
25350;BME280;13302;48.796;11.978;2023-02-18T15:36:02;97066.66;;;12.86;35.25
25350;BME280;13302;48.796;11.978;2023-02-18T15:38:50;97072.19;;;12.86;35.42
25350;BME280;13302;48.796;11.978;2023-02-18T15:41:37;97080.50;;;12.86;35.60
25350;BME280;13302;48.796;11.978;2023-02-18T15:44:26;97094.38;;;12.86;35.29
25350;BME280;13302;48.796;11.978;2023-02-18T15:47:15;97074.16;;;12.86;35.60
25350;BME280;13302;48.796;11.978;2023-02-18T15:50:04;97078.97;;;12.89;35.38
25350;BME280;13302;48.796;11.978;2023-02-18T15:52:53;97071.38;;;12.86;35.55
25350;BME280;13302;48.796;11.978;2023-02-18T15:55:45;97074.16;;;12.86;35.57
25350;BME280;13302;48.796;11.978;2023-02-18T15:58:33;97062.25;;;12.85;35.32
25350;BME280;13302;48.796;11.978;2023-02-18T16:01:27;97067.38;;;12.83;35.54
25350;BME280;13302;48.796;11.978;2023-02-18T16:04:15;97084.03;;;12.83;35.67
25350;BME280;13302;48.796;11.978;2023-02-18T16:07:15;97083.22;;;12.83;35.42
25350;BME280;13302;48.796;11.978;2023-02-18T16:10:14;97079.28;;;12.84;35.26
25350;BME280;13302;48.796;11.978;2023-02-18T16:13:02;97085.59;;;12.84;35.43
25350;BME280;13302;48.796;11.978;2023-02-18T16:15:51;97083.56;;;12.81;35.42
25350;BME280;13302;48.796;11.978;2023-02-18T16:18:40;97084.72;;;12.80;35.23
25350;BME280;13302;48.796;11.978;2023-02-18T16:24:26;97096.19;;;12.79;35.39
25350;BME280;13302;48.796;11.978;2023-02-18T16:27:15;97091.44;;;12.79;35.72
25350;BME280;13302;48.796;11.978;2023-02-18T16:30:32;97089.03;;;12.78;35.39
25350;BME280;13302;48.796;11.978;2023-02-18T16:33:20;97092.63;;;12.78;35.58
25350;BME280;13302;48.796;11.978;2023-02-18T16:36:12;97097.34;;;12.78;35.56
25350;BME280;13302;48.796;11.978;2023-02-18T16:39:01;97097.00;;;12.79;35.36
25350;BME280;13302;48.796;11.978;2023-02-18T16:41:48;97110.06;;;12.79;35.40
25350;BME280;13302;48.796;11.978;2023-02-18T16:44:35;97124.66;;;12.76;35.51
25350;BME280;13302;48.796;11.978;2023-02-18T16:47:22;97126.25;;;12.77;35.23
25350;BME280;13302;48.796;11.978;2023-02-18T16:50:18;97125.81;;;12.75;35.19
25350;BME280;13302;48.796;11.978;2023-02-18T16:53:06;97124.19;;;12.74;35.45
25350;BME280;13302;48.796;11.978;2023-02-18T16:55:54;97121.44;;;12.74;35.49